Time;durP1;ratioP1;P1;durP2;ratioP2;P2;SDS_P1;SDS_P2;PMS_P1;PMS_P2;Temp;Humidity;BMP_temperature;BMP_pressure;BME280_temperature;BME280_humidity;BME280_pressure;Samples;Min_cycle;Max_cycle;Signal;HPM_P1;HPM_P2
2023/01/20 00:00:00;;;;;;;20.73;11.38;;;;;;;-0.56;100.00;98171.75;5086482;28;20029;-73
2023/01/20 00:02:25;;;;;;;19.58;11.15;;;;;;;-0.55;100.00;98165.44;5064922;28;20059;-74
2023/01/20 00:04:50;;;;;;;20.77;11.13;;;;;;;-0.53;100.00;98176.75;5066001;28;20119;-73
2023/01/20 00:07:16;;;;;;;18.15;10.48;;;;;;;-0.59;100.00;98182.66;5089762;28;20008;-74
2023/01/20 00:09:41;;;;;;;21.60;11.27;;;;;;;-0.61;100.00;98179.31;5074363;28;20091;-74
2023/01/20 00:12:06;;;;;;;24.40;11.23;;;;;;;-0.64;100.00;98184.94;5084227;28;20031;-74
2023/01/20 00:14:31;;;;;;;21.00;11.32;;;;;;;-0.64;100.00;98187.59;5060065;28;20031;-73
2023/01/20 00:16:58;;;;;;;25.73;11.75;;;;;;;-0.67;100.00;98191.38;5067454;28;20032;-75
2023/01/20 00:19:24;;;;;;;23.27;11.32;;;;;;;-0.42;100.00;98203.09;5054641;28;20052;-74
2023/01/20 00:21:49;;;;;;;19.30;10.63;;;;;;;-0.59;100.00;98188.81;5061548;28;20035;-74
2023/01/20 00:24:15;;;;;;;22.17;12.25;;;;;;;-0.57;100.00;98201.97;5057333;28;20013;-74
2023/01/20 00:26:40;;;;;;;20.35;11.55;;;;;;;-0.27;100.00;98208.75;5053901;28;20028;-74
2023/01/20 00:29:05;;;;;;;24.70;11.38;;;;;;;-0.40;100.00;98195.81;5057347;28;20028;-74
2023/01/20 00:31:31;;;;;;;20.52;11.15;;;;;;;-0.41;100.00;98202.13;5058395;28;20032;-74
2023/01/20 00:33:58;;;;;;;25.05;12.40;;;;;;;-0.48;100.00;98209.03;5055050;28;20074;-74
2023/01/20 00:36:25;;;;;;;27.02;11.88;;;;;;;-0.61;100.00;98208.53;5059633;28;20513;-74
2023/01/20 00:38:51;;;;;;;21.48;11.45;;;;;;;-0.59;100.00;98217.19;5069212;28;20080;-74
2023/01/20 00:41:17;;;;;;;26.50;11.15;;;;;;;-0.64;100.00;98214.97;5050437;28;20040;-74
2023/01/20 00:43:43;;;;;;;26.23;12.10;;;;;;;-0.74;100.00;98222.97;5044130;28;20020;-74
2023/01/20 00:46:10;;;;;;;22.67;11.88;;;;;;;-0.82;100.00;98191.00;5071419;28;20382;-74
2023/01/20 00:48:36;;;;;;;23.23;12.57;;;;;;;-0.64;100.00;98209.66;5057021;28;20020;-74
2023/01/20 00:51:01;;;;;;;23.15;12.05;;;;;;;-0.56;100.00;98224.88;5058071;28;20028;-74
2023/01/20 00:53:27;;;;;;;27.88;13.40;;;;;;;-0.68;100.00;98221.59;5076151;28;20037;-74
2023/01/20 00:55:52;;;;;;;28.85;13.38;;;;;;;-0.77;100.00;98217.13;5053544;28;20052;-74
2023/01/20 00:58:17;;;;;;;26.25;12.13;;;;;;;-0.80;100.00;98225.41;5079152;28;20035;-74
2023/01/20 01:00:45;;;;;;;23.85;12.55;;;;;;;-0.83;100.00;98234.50;5058860;28;20056;-74
2023/01/20 01:03:11;;;;;;;32.80;14.05;;;;;;;-0.93;100.00;98236.34;5077117;28;20039;-74
2023/01/20 01:05:36;;;;;;;26.85;13.95;;;;;;;-0.99;100.00;98234.28;5078131;28;20025;-74
2023/01/20 01:08:02;;;;;;;25.15;13.73;;;;;;;-0.95;100.00;98235.63;5067283;28;20053;-74
2023/01/20 01:10:27;;;;;;;25.20;13.10;;;;;;;-0.98;100.00;98241.25;5046688;28;20025;-74
2023/01/20 01:12:52;;;;;;;25.60;14.18;;;;;;;-1.08;100.00;98228.00;5073229;28;20037;-74
2023/01/20 01:15:18;;;;;;;25.65;13.52;;;;;;;-0.98;100.00;98241.25;5083640;28;20024;-74
2023/01/20 01:17:43;;;;;;;29.52;15.05;;;;;;;-1.01;100.00;98233.56;5074304;28;20067;-74
2023/01/20 01:20:10;;;;;;;29.17;14.45;;;;;;;-0.95;100.00;98254.22;5089018;28;20123;-74
2023/01/20 01:22:36;;;;;;;27.10;13.52;;;;;;;-0.86;100.00;98258.69;5070951;28;20054;-74
2023/01/20 01:25:01;;;;;;;27.55;14.05;;;;;;;-0.69;100.00;98276.50;5060583;28;20074;-74
2023/01/20 01:27:27;;;;;;;27.25;13.35;;;;;;;-0.65;100.00;98273.59;5060975;28;20017;-74
2023/01/20 01:29:53;;;;;;;27.10;13.07;;;;;;;-0.72;100.00;98260.03;5073472;28;20036;-74
2023/01/20 01:32:19;;;;;;;22.77;12.70;;;;;;;-0.79;100.00;98258.94;5074422;28;20051;-74
2023/01/20 01:34:44;;;;;;;24.52;13.32;;;;;;;-0.81;100.00;98255.56;5059461;28;20039;-75
2023/01/20 01:37:10;;;;;;;23.30;12.65;;;;;;;-0.71;100.00;98281.16;5067869;28;20405;-74
2023/01/20 01:39:35;;;;;;;28.10;14.02;;;;;;;-0.81;100.00;98275.03;5050868;28;20028;-74
2023/01/20 01:42:00;;;;;;;26.45;13.90;;;;;;;-0.92;100.00;98273.38;5052164;28;20040;-74
2023/01/20 01:44:27;;;;;;;29.55;14.90;;;;;;;-0.85;100.00;98272.78;5044633;28;20044;-74
2023/01/20 01:46:52;;;;;;;27.75;14.57;;;;;;;-0.63;100.00;98285.72;5065193;28;20056;-74
2023/01/20 01:49:20;;;;;;;26.65;12.98;;;;;;;-0.62;100.00;98294.53;5052711;28;20402;-74
2023/01/20 01:51:51;;;;;;;32.88;14.82;;;;;;;-0.65;100.00;98292.19;5055093;28;20029;-74
2023/01/20 01:54:21;;;;;;;27.17;13.13;;;;;;;-0.67;100.00;98293.16;5066817;28;20028;-74
2023/01/20 01:56:48;;;;;;;27.10;13.40;;;;;;;-0.56;100.00;98299.25;5062692;28;20424;-74
2023/01/20 01:59:15;;;;;;;26.20;13.95;;;;;;;-0.63;100.00;98291.03;5064929;28;20024;-74
2023/01/20 02:01:44;;;;;;;26.63;13.00;;;;;;;-0.61;100.00;98298.88;5061714;28;20021;-74
2023/01/20 02:04:12;;;;;;;21.13;11.93;;;;;;;-0.62;100.00;98297.19;5051306;28;20490;-74
2023/01/20 02:06:41;;;;;;;29.02;12.45;;;;;;;-0.73;100.00;98283.09;5043531;28;20033;-74
2023/01/20 02:09:07;;;;;;;20.85;12.07;;;;;;;-0.67;100.00;98293.16;5047168;28;20038;-74
2023/01/20 02:11:40;;;;;;;24.13;12.63;;;;;;;-0.63;100.00;98292.84;5051377;28;20028;-74
2023/01/20 02:14:07;;;;;;;24.00;12.75;;;;;;;-0.67;100.00;98290.50;5046435;28;20038;-74
2023/01/20 02:16:43;;;;;;;26.52;12.77;;;;;;;-0.57;100.00;98306.41;5058642;28;20126;-74
2023/01/20 02:19:29;;;;;;;22.63;12.68;;;;;;;-0.57;100.00;98302.91;5073042;28;20051;-74
2023/01/20 02:22:10;;;;;;;21.67;12.35;;;;;;;-0.62;100.00;98297.19;5074802;28;20028;-74
2023/01/20 02:24:50;;;;;;;23.50;12.63;;;;;;;-0.56;100.00;98307.22;5062214;28;20137;-74
2023/01/20 02:28:00;;;;;;;22.27;12.40;;;;;;;-0.57;100.00;98298.44;5058028;28;20029;-74
2023/01/20 02:30:47;;;;;;;24.05;12.77;;;;;;;-0.60;100.00;98311.16;4983828;28;20179;-74
2023/01/20 02:33:17;;;;;;;20.90;11.82;;;;;;;-0.72;100.00;98298.06;5053860;28;20052;-74
2023/01/20 02:35:51;;;;;;;24.92;11.82;;;;;;;-0.65;100.00;98298.31;5057507;28;20070;-74
2023/01/20 02:38:31;;;;;;;25.33;12.27;;;;;;;-0.74;100.00;98299.19;5059420;28;20040;-74
2023/01/20 02:41:02;;;;;;;24.02;12.43;;;;;;;-0.64;100.00;98310.63;5062818;28;20032;-74
2023/01/20 02:43:38;;;;;;;22.02;11.63;;;;;;;-0.64;100.00;98307.97;5052173;28;20050;-74
2023/01/20 02:46:16;;;;;;;24.75;13.27;;;;;;;-0.60;100.00;98311.16;5064819;28;20048;-74
2023/01/20 02:48:59;;;;;;;27.55;13.35;;;;;;;-0.58;100.00;98315.34;5066179;28;20068;-74
2023/01/20 02:51:30;;;;;;;25.40;13.98;;;;;;;-0.80;100.00;98308.56;5057860;28;20478;-74
2023/01/20 02:54:00;;;;;;;26.80;13.73;;;;;;;-0.81;100.00;98327.28;5054095;28;20028;-74
2023/01/20 02:56:28;;;;;;;26.20;13.35;;;;;;;-0.79;100.00;98333.28;5076082;28;20021;-74
2023/01/20 02:58:59;;;;;;;25.70;13.35;;;;;;;-0.81;100.00;98336.13;5074674;28;20033;-74
2023/01/20 03:01:31;;;;;;;27.38;14.02;;;;;;;-0.78;100.00;98329.69;5080745;28;20029;-74
2023/01/20 03:03:59;;;;;;;27.88;14.43;;;;;;;-0.82;100.00;98321.13;5067358;28;20020;-74
2023/01/20 03:06:31;;;;;;;25.10;14.15;;;;;;;-0.79;100.00;98328.81;5076089;28;20004;-74
2023/01/20 03:08:59;;;;;;;22.48;12.90;;;;;;;-0.72;100.00;98335.25;5061811;28;20033;-74
2023/01/20 03:11:25;;;;;;;25.83;13.23;;;;;;;-0.71;100.00;98342.25;5078920;28;20060;-74
2023/01/20 03:14:02;;;;;;;24.02;13.55;;;;;;;-0.68;100.00;98325.19;5055121;28;20044;-74
2023/01/20 03:16:27;;;;;;;22.63;13.25;;;;;;;-0.60;100.00;98345.69;5079378;28;20028;-74
2023/01/20 03:18:54;;;;;;;25.67;13.02;;;;;;;-0.54;100.00;98347.78;5088027;22;20117;-60
2023/01/20 03:21:20;;;;;;;23.13;13.02;;;;;;;-0.57;100.00;98343.59;5070670;28;20069;-60
2023/01/20 03:23:48;;;;;;;28.30;13.15;;;;;;;-0.56;100.00;98344.44;5074771;28;20040;-60
2023/01/20 03:26:15;;;;;;;23.10;12.63;;;;;;;-0.56;100.00;98350.56;5066344;28;20115;-57
2023/01/20 03:28:43;;;;;;;23.77;12.93;;;;;;;-0.63;100.00;98351.28;5051518;28;20029;-58
2023/01/20 03:31:17;;;;;;;24.58;12.70;;;;;;;-0.73;100.00;98335.41;5047981;28;20025;-58
2023/01/20 03:33:45;;;;;;;25.17;13.02;;;;;;;-0.68;100.00;98341.94;5066289;28;20043;-57
2023/01/20 03:36:13;;;;;;;21.95;11.30;;;;;;;-0.71;100.00;98350.22;5053351;28;20020;-58
2023/01/20 03:38:38;;;;;;;21.98;12.77;;;;;;;-0.77;100.00;98347.28;5052471;28;20546;-57
2023/01/20 03:41:19;;;;;;;25.52;13.13;;;;;;;-0.73;100.00;98365.44;5064976;28;20024;-58
2023/01/20 03:44:02;;;;;;;22.02;12.38;;;;;;;-0.73;100.00;98365.44;5055543;28;20090;-59
2023/01/20 03:46:52;;;;;;;24.92;11.88;;;;;;;-0.70;100.00;98361.66;5055562;28;20016;-58
2023/01/20 03:49:17;;;;;;;23.83;11.93;;;;;;;-0.65;100.00;98361.25;5052857;28;20032;-57
2023/01/20 03:52:00;;;;;;;21.88;12.55;;;;;;;-0.65;100.00;98362.09;5056184;28;20025;-57
2023/01/20 03:54:33;;;;;;;24.73;13.70;;;;;;;-0.71;100.00;98368.81;5047533;28;20024;-57
2023/01/20 03:57:14;;;;;;;24.33;13.02;;;;;;;-0.73;100.00;98377.91;5048336;28;20437;-57
2023/01/20 03:59:42;;;;;;;23.27;13.48;;;;;;;-0.74;100.00;98371.72;5051613;28;20483;-57
2023/01/20 04:02:10;;;;;;;23.15;13.40;;;;;;;-0.76;100.00;98378.16;5054890;28;20380;-58
2023/01/20 04:04:38;;;;;;;24.30;13.77;;;;;;;-0.77;100.00;98384.47;5047814;28;20446;-57
2023/01/20 04:07:11;;;;;;;25.58;13.35;;;;;;;-0.81;100.00;98389.22;5051989;28;20066;-57
2023/01/20 04:09:46;;;;;;;27.17;14.00;;;;;;;-0.82;100.00;98382.22;5058486;28;20028;-57
2023/01/20 04:12:12;;;;;;;25.23;14.23;;;;;;;-0.85;100.00;98392.31;5057246;28;20048;-58
2023/01/20 04:14:38;;;;;;;27.40;15.27;;;;;;;-0.85;100.00;98387.00;5044245;28;20095;-58
2023/01/20 04:17:03;;;;;;;31.35;15.63;;;;;;;-0.83;100.00;98395.66;5043823;28;20488;-58
2023/01/20 04:19:29;;;;;;;27.00;13.73;;;;;;;-0.80;100.00;98396.22;5046990;28;20059;-58
2023/01/20 04:22:11;;;;;;;32.20;14.93;;;;;;;-0.80;100.00;98398.03;5051073;28;20396;-58
2023/01/20 04:24:43;;;;;;;27.20;14.70;;;;;;;-0.78;100.00;98399.56;5045649;28;20017;-58
2023/01/20 04:27:08;;;;;;;33.72;15.55;;;;;;;-0.78;100.00;98404.88;5041184;28;20032;-59
2023/01/20 04:29:33;;;;;;;30.92;15.52;;;;;;;-0.77;100.00;98408.38;5052940;28;20021;-59
2023/01/20 04:32:01;;;;;;;29.95;16.25;;;;;;;-0.78;100.00;98406.69;5045566;28;20028;-60
2023/01/20 04:34:26;;;;;;;29.58;16.08;;;;;;;-0.85;100.00;98402.94;5050766;28;20032;-58
2023/01/20 04:36:52;;;;;;;29.33;15.25;;;;;;;-0.88;100.00;98412.00;5054420;28;20491;-58
2023/01/20 04:39:17;;;;;;;35.38;16.90;;;;;;;-0.86;100.00;98417.16;5049517;28;20461;-58
2023/01/20 04:41:42;;;;;;;31.60;15.52;;;;;;;-0.85;100.00;98418.84;5044157;28;20039;-58
2023/01/20 04:44:08;;;;;;;33.78;15.90;;;;;;;-0.87;100.00;98411.03;5053767;28;20031;-58
2023/01/20 04:46:33;;;;;;;29.27;14.82;;;;;;;-0.80;100.00;98406.81;5054528;28;20025;-58
2023/01/20 04:48:58;;;;;;;28.42;15.38;;;;;;;-0.64;100.00;98421.34;5052618;28;20039;-58
2023/01/20 04:51:24;;;;;;;29.92;14.80;;;;;;;-0.65;100.00;98412.56;5054049;28;20500;-58
2023/01/20 04:53:49;;;;;;;26.42;14.63;;;;;;;-0.60;100.00;98425.38;5050783;28;20029;-58
2023/01/20 04:56:15;;;;;;;26.33;13.15;;;;;;;-0.56;100.00;98426.78;5053246;28;20021;-58
2023/01/20 04:58:41;;;;;;;23.88;12.65;;;;;;;-0.55;100.00;98423.16;5043503;28;20053;-58
2023/01/20 05:01:07;;;;;;;25.27;13.15;;;;;;;-0.53;100.00;98431.81;5041296;28;20033;-58
2023/01/20 05:03:34;;;;;;;22.95;12.80;;;;;;;-0.55;100.00;98434.63;5045301;28;20025;-57
2023/01/20 05:05:59;;;;;;;22.83;12.43;;;;;;;-0.58;100.00;98431.41;5052894;28;20619;-57
2023/01/20 05:08:25;;;;;;;24.10;12.15;;;;;;;-0.61;100.00;98437.84;5052228;28;20024;-58
2023/01/20 05:10:51;;;;;;;23.77;12.10;;;;;;;-0.56;100.00;98445.41;5051220;28;20025;-58
2023/01/20 05:13:16;;;;;;;21.58;12.70;;;;;;;-0.51;100.00;98445.81;5049711;28;20108;-58
2023/01/20 05:15:43;;;;;;;22.50;12.93;;;;;;;-0.51;100.00;98448.47;5048070;28;20116;-58
2023/01/20 05:18:09;;;;;;;25.42;11.73;;;;;;;-0.58;100.00;98453.50;5040205;28;20357;-58
2023/01/20 05:20:35;;;;;;;25.55;12.50;;;;;;;-0.61;100.00;98452.94;5046948;28;20025;-61
2023/01/20 05:23:00;;;;;;;24.73;12.73;;;;;;;-0.61;100.00;98459.09;5049452;28;20094;-58
2023/01/20 05:25:25;;;;;;;20.75;11.95;;;;;;;-0.63;100.00;98469.00;5038185;28;20013;-60
2023/01/20 05:27:51;;;;;;;24.63;11.82;;;;;;;-0.64;100.00;98463.88;5048455;28;20060;-60
2023/01/20 05:30:16;;;;;;;20.70;11.60;;;;;;;-0.57;100.00;98464.97;5047795;28;20043;-60
2023/01/20 05:32:44;;;;;;;22.27;12.50;;;;;;;-0.58;100.00;98473.91;5051364;28;20391;-59
2023/01/20 05:35:09;;;;;;;24.77;11.13;;;;;;;-0.65;100.00;98464.84;5049441;28;20024;-60
2023/01/20 05:37:34;;;;;;;22.58;11.20;;;;;;;-0.72;100.00;98468.06;5048543;28;20503;-59
2023/01/20 05:40:00;;;;;;;23.23;12.00;;;;;;;-0.77;100.00;98475.59;5046746;28;20078;-59
2023/01/20 05:42:25;;;;;;;20.95;11.40;;;;;;;-0.80;100.00;98480.38;5050284;28;20485;-59
2023/01/20 05:44:51;;;;;;;23.73;12.82;;;;;;;-0.84;100.00;98479.78;5046169;28;20021;-59
2023/01/20 05:47:16;;;;;;;25.20;12.73;;;;;;;-0.79;100.00;98482.03;5049992;28;20487;-60
2023/01/20 05:49:41;;;;;;;20.40;11.23;;;;;;;-0.89;100.00;98482.88;5049242;28;20033;-60
2023/01/20 05:52:07;;;;;;;24.27;11.50;;;;;;;-0.93;100.00;98486.78;5051660;28;20123;-59
2023/01/20 05:54:32;;;;;;;25.80;12.45;;;;;;;-0.96;100.00;98492.38;5057501;28;20704;-60
2023/01/20 05:56:58;;;;;;;24.42;12.73;;;;;;;-0.99;100.00;98486.50;5051273;28;20028;-59
2023/01/20 05:59:23;;;;;;;26.92;14.05;;;;;;;-1.05;100.00;98487.03;5039268;28;20033;-60
2023/01/20 06:01:49;;;;;;;24.08;13.35;;;;;;;-1.15;100.00;98492.34;5039257;28;20043;-60
2023/01/20 06:04:14;;;;;;;27.38;13.52;;;;;;;-1.16;100.00;98491.50;5049996;28;21417;-60
2023/01/20 06:06:40;;;;;;;27.90;13.80;;;;;;;-1.15;100.00;98493.19;5047713;28;20194;-60
2023/01/20 06:09:05;;;;;;;24.10;12.85;;;;;;;-1.23;100.00;98500.13;5047739;28;20165;-60
2023/01/20 06:11:31;;;;;;;27.63;13.85;;;;;;;-1.38;100.00;98503.19;5048198;28;20171;-60
2023/01/20 06:13:56;;;;;;;28.77;14.60;;;;;;;-1.51;100.00;98504.41;5051679;28;20048;-60
2023/01/20 06:16:22;;;;;;;30.27;14.50;;;;;;;-1.65;100.00;98505.59;5055795;28;20028;-60
2023/01/20 06:18:47;;;;;;;28.80;14.88;;;;;;;-1.72;100.00;98507.09;5048362;28;20041;-60
2023/01/20 06:21:13;;;;;;;28.88;14.95;;;;;;;-1.77;100.00;98508.34;5051426;28;20029;-60
2023/01/20 06:23:38;;;;;;;33.53;16.48;;;;;;;-1.79;100.00;98522.69;5044032;28;20037;-60
2023/01/20 06:26:06;;;;;;;40.38;18.05;;;;;;;-1.87;100.00;98504.78;5057811;28;20067;-59
2023/01/20 06:28:33;;;;;;;24.13;13.18;;;;;;;-1.88;100.00;98526.16;5051509;28;20480;-60
2023/01/20 06:31:03;;;;;;;34.95;16.10;;;;;;;-2.02;100.00;98529.97;5060855;28;20502;-60
2023/01/20 06:33:29;;;;;;;36.17;17.27;;;;;;;-2.09;100.00;98524.38;5043909;28;20029;-59
2023/01/20 06:35:56;;;;;;;31.30;16.65;;;;;;;-2.04;100.00;98537.22;5046987;28;20036;-60
2023/01/20 06:38:22;;;;;;;43.22;18.52;;;;;;;-2.10;100.00;98541.22;5047641;28;20028;-59
2023/01/20 06:40:48;;;;;;;41.97;18.10;;;;;;;-2.09;100.00;98548.22;5051453;28;20155;-60
2023/01/20 06:43:13;;;;;;;37.90;18.33;;;;;;;-2.09;100.00;98556.16;5051170;28;20119;-60
2023/01/20 06:45:39;;;;;;;34.97;16.40;;;;;;;-2.11;100.00;98558.09;5042212;28;20091;-61
2023/01/20 06:48:04;;;;;;;33.92;17.20;;;;;;;-2.05;100.00;98568.16;5046656;28;20033;-59
2023/01/20 06:50:30;;;;;;;39.22;16.20;;;;;;;-1.96;100.00;98573.69;5048609;28;20029;-60
2023/01/20 06:52:55;;;;;;;41.15;19.17;;;;;;;-1.92;100.00;98573.28;5050811;28;20033;-59
2023/01/20 06:55:21;;;;;;;44.58;20.10;;;;;;;-1.81;100.00;98572.38;5048109;28;20461;-59
2023/01/20 06:57:46;;;;;;;41.10;20.10;;;;;;;-1.80;100.00;98585.50;5048320;28;20461;-58
2023/01/20 07:00:12;;;;;;;41.83;19.85;;;;;;;-1.76;100.00;98583.41;5046337;28;20037;-58
2023/01/20 07:02:37;;;;;;;40.70;19.13;;;;;;;-1.75;100.00;98589.59;5041714;28;20089;-58
2023/01/20 07:05:06;;;;;;;42.00;19.88;;;;;;;-1.74;100.00;98591.25;5040659;28;20428;-58
2023/01/20 07:07:32;;;;;;;39.08;18.48;;;;;;;-1.68;100.00;98593.38;5040106;28;20033;-58
2023/01/20 07:09:58;;;;;;;44.47;19.52;;;;;;;-1.59;100.00;98603.22;5047259;28;20029;-61
2023/01/20 07:12:23;;;;;;;44.03;20.15;;;;;;;-1.53;100.00;98607.97;5041267;28;20415;-59
2023/01/20 07:14:49;;;;;;;48.78;20.67;;;;;;;-1.62;100.00;98612.28;5044716;28;20056;-60
2023/01/20 07:17:14;;;;;;;48.13;20.00;;;;;;;-1.60;100.00;98613.00;5047699;28;20485;-60
2023/01/20 07:19:39;;;;;;;42.28;19.60;;;;;;;-1.60;100.00;98610.34;5043475;28;20392;-59
2023/01/20 07:22:05;;;;;;;44.30;20.67;;;;;;;-1.61;100.00;98607.81;5042748;28;20032;-58
2023/01/20 07:24:30;;;;;;;43.97;20.45;;;;;;;-1.62;100.00;98616.75;5046840;28;20043;-58
2023/01/20 07:26:55;;;;;;;35.80;19.20;;;;;;;-1.65;100.00;98611.69;5042478;28;20063;-58
2023/01/20 07:29:21;;;;;;;41.08;18.88;;;;;;;-1.68;100.00;98623.38;5054608;28;20078;-58
2023/01/20 07:31:46;;;;;;;48.40;20.98;;;;;;;-1.71;100.00;98622.81;5061846;28;20044;-58
2023/01/20 07:34:12;;;;;;;41.63;21.30;;;;;;;-1.71;100.00;98630.78;5043213;28;20932;-59
2023/01/20 07:36:37;;;;;;;40.80;19.50;;;;;;;-1.62;100.00;98637.97;5049308;28;20071;-61
2023/01/20 07:39:02;;;;;;;42.22;18.77;;;;;;;-1.61;100.00;98640.47;5049630;28;20113;-58
2023/01/20 07:41:28;;;;;;;40.10;18.50;;;;;;;-1.60;100.00;98636.88;5041692;28;20029;-58
2023/01/20 07:43:53;;;;;;;38.45;18.83;;;;;;;-1.62;100.00;98641.47;5048983;28;20040;-59
2023/01/20 07:46:19;;;;;;;32.65;18.13;;;;;;;-1.61;100.00;98645.78;5047323;28;20070;-56
2023/01/20 07:48:44;;;;;;;48.13;18.98;;;;;;;-1.54;100.00;98646.09;5043057;28;20025;-56
2023/01/20 07:51:12;;;;;;;33.40;16.88;;;;;;;-1.47;100.00;98652.56;5048917;28;20041;-55
2023/01/20 07:53:45;;;;;;;32.22;16.42;;;;;;;-1.43;100.00;98651.34;5047427;28;20029;-56
2023/01/20 07:56:14;;;;;;;39.88;17.42;;;;;;;-1.33;100.00;98649.56;5049938;28;20028;-55
2023/01/20 07:58:40;;;;;;;36.50;17.73;;;;;;;-1.11;100.00;98653.84;5047440;28;20037;-56
2023/01/20 08:01:07;;;;;;;35.08;17.23;;;;;;;-0.89;100.00;98657.31;5052138;28;20025;-56
2023/01/20 08:03:33;;;;;;;37.70;17.63;;;;;;;-0.69;100.00;98653.72;5042760;28;20155;-55
2023/01/20 08:06:02;;;;;;;32.65;17.17;;;;;;;-0.55;100.00;98659.63;5051288;28;20021;-55
2023/01/20 08:08:28;;;;;;;36.08;17.35;;;;;;;-0.48;100.00;98650.97;5049565;28;20021;-56
2023/01/20 08:10:53;;;;;;;25.02;15.38;;;;;;;-0.34;100.00;98657.72;5050196;28;20048;-56
2023/01/20 08:13:19;;;;;;;27.25;13.95;;;;;;;0.00;100.00;98654.69;5049398;28;20488;-57
2023/01/20 08:15:44;;;;;;;30.52;13.57;;;;;;;0.06;100.00;98658.59;5050205;28;20024;-56
2023/01/20 08:18:09;;;;;;;28.50;13.70;;;;;;;0.17;100.00;98666.41;5050484;28;20048;-56
2023/01/20 08:20:39;;;;;;;22.27;12.63;;;;;;;0.35;100.00;98663.91;5054768;28;20033;-56
2023/01/20 08:23:04;;;;;;;23.52;11.57;;;;;;;0.47;100.00;98662.72;5050152;28;20061;-56
2023/01/20 08:25:30;;;;;;;23.05;11.98;;;;;;;0.47;100.00;98656.56;5054057;28;20414;-59
2023/01/20 08:27:55;;;;;;;18.98;11.10;;;;;;;0.57;100.00;98663.56;5047197;28;20025;-59
2023/01/20 08:30:20;;;;;;;22.27;11.32;;;;;;;0.73;100.00;98657.63;5050153;28;20028;-59
2023/01/20 08:32:46;;;;;;;21.48;11.32;;;;;;;0.68;100.00;98657.22;5054023;28;20035;-59
2023/01/20 08:35:11;;;;;;;20.08;10.35;;;;;;;0.74;100.00;98659.34;5048972;28;20098;-59
2023/01/20 08:37:40;;;;;;;21.90;11.73;;;;;;;0.73;100.00;98665.63;5050769;28;20218;-59
2023/01/20 08:40:07;;;;;;;16.98;11.05;;;;;;;0.58;100.00;98662.59;5045044;28;20017;-59
2023/01/20 08:42:33;;;;;;;18.02;10.57;;;;;;;0.72;100.00;98679.09;5053056;28;20032;-59
2023/01/20 08:44:59;;;;;;;19.15;11.57;;;;;;;0.51;100.00;98681.94;5052599;28;20047;-59
2023/01/20 08:47:24;;;;;;;18.58;10.63;;;;;;;0.41;100.00;98682.78;5052060;28;20466;-60
2023/01/20 08:49:52;;;;;;;22.83;11.85;;;;;;;0.33;100.00;98692.47;5047150;28;20032;-59
2023/01/20 08:52:18;;;;;;;22.17;11.80;;;;;;;0.22;100.00;98696.09;5052315;28;20024;-59
2023/01/20 08:54:44;;;;;;;22.67;11.80;;;;;;;0.09;100.00;98690.22;5048819;28;20044;-59
2023/01/20 08:57:09;;;;;;;22.55;12.65;;;;;;;0.01;100.00;98692.75;5046363;28;20104;-59
2023/01/20 08:59:35;;;;;;;26.25;12.93;;;;;;;0.01;100.00;98704.22;5048015;28;20027;-55
2023/01/20 09:02:00;;;;;;;22.60;13.13;;;;;;;0.05;100.00;98702.94;5050618;28;20087;-56
2023/01/20 09:04:26;;;;;;;25.48;12.65;;;;;;;-0.08;100.00;98697.94;5039281;28;20056;-56
2023/01/20 09:06:52;;;;;;;27.73;12.63;;;;;;;-0.14;100.00;98708.25;5053268;28;20071;-55
2023/01/20 09:09:20;;;;;;;24.42;13.63;;;;;;;0.01;100.00;98714.84;5048553;28;20025;-55
2023/01/20 09:11:49;;;;;;;18.35;11.35;;;;;;;0.10;100.00;98713.19;5053872;28;20163;-56
2023/01/20 09:14:19;;;;;;;20.80;11.27;;;;;;;0.01;100.00;98725.50;5047475;28;20496;-56
2023/01/20 09:16:45;;;;;;;20.35;11.57;;;;;;;-0.10;100.00;98722.97;5037071;28;20495;-55
2023/01/20 09:19:10;;;;;;;26.08;11.93;;;;;;;-0.32;100.00;98714.22;5074353;22;20036;-74
2023/01/20 09:21:36;;;;;;;23.02;12.30;;;;;;;-0.45;100.00;98701.22;5066026;28;20025;-74
2023/01/20 09:24:01;;;;;;;21.65;12.25;;;;;;;-0.52;100.00;98701.91;5058409;28;20116;-75
2023/01/20 09:26:26;;;;;;;25.02;12.68;;;;;;;-0.41;100.00;98719.53;5070391;28;20033;-78
2023/01/20 09:28:52;;;;;;;26.60;12.88;;;;;;;-0.46;100.00;98720.78;5056054;28;20096;-79
2023/01/20 09:31:18;;;;;;;24.75;12.80;;;;;;;-0.40;100.00;98727.38;5056268;28;20024;-77
2023/01/20 09:33:44;;;;;;;23.60;12.98;;;;;;;-0.36;100.00;98712.84;5071333;28;20036;-78
2023/01/20 09:36:10;;;;;;;25.30;12.93;;;;;;;-0.25;100.00;98719.84;5071112;28;20449;-78
2023/01/20 09:44:48;;;;;;;22.05;12.93;;;;;;;0.68;100.00;98737.09;5063526;28;20132;-78
2023/01/20 09:47:40;;;;;;;27.02;12.02;;;;;;;0.99;100.00;98727.09;5063719;28;20032;-77
2023/01/20 09:53:29;;;;;;;18.08;10.75;;;;;;;2.40;100.00;98718.72;5054888;28;20044;-77
2023/01/20 09:56:00;;;;;;;22.63;11.13;;;;;;;4.04;100.00;98713.47;5073053;28;20085;-77
2023/01/20 09:58:37;;;;;;;16.50;9.85;;;;;;;6.25;100.00;98711.19;5055784;28;20115;-77
2023/01/20 10:01:08;;;;;;;22.23;9.82;;;;;;;8.80;100.00;98712.63;5055473;28;20492;-77
2023/01/20 10:04:11;;;;;;;15.88;8.68;;;;;;;11.93;74.50;98698.06;5053157;28;20055;-75
2023/01/20 10:06:44;;;;;;;14.93;9.73;;;;;;;12.47;62.17;98702.19;5055137;28;20043;-75
2023/01/20 10:09:20;;;;;;;14.55;8.85;;;;;;;13.53;55.29;98708.66;5056190;28;20028;-75
2023/01/20 10:11:47;;;;;;;13.88;8.95;;;;;;;13.60;55.74;98714.03;5056174;28;20032;-75
2023/01/20 10:14:16;;;;;;;11.95;8.80;;;;;;;14.19;52.63;98708.94;5055342;28;20421;-75
2023/01/20 10:17:16;;;;;;;13.02;9.45;;;;;;;15.69;50.40;98707.91;5071443;28;20039;-79
2023/01/20 10:19:55;;;;;;;15.27;9.48;;;;;;;15.32;48.96;98719.00;5048453;28;20032;-77
2023/01/20 10:22:54;;;;;;;13.57;9.30;;;;;;;14.00;51.40;98727.19;5061786;28;20044;-77
2023/01/20 10:25:30;;;;;;;;;;;;;;;15.12;49.55;98716.63;5059199;28;20297;-73
2023/01/20 10:27:59;;;;;;;12.10;8.82;;;;;;;15.40;49.44;98717.00;5066784;28;19919;-73
2023/01/20 10:30:31;;;;;;;16.08;10.23;;;;;;;16.10;48.09;98716.94;5072006;28;20028;-73
2023/01/20 10:33:19;;;;;;;14.75;9.10;;;;;;;17.63;44.94;98716.13;5069570;28;20032;-74
2023/01/20 10:35:50;;;;;;;11.90;8.25;;;;;;;19.70;43.25;98706.00;5073111;28;20060;-73
2023/01/20 10:38:30;;;;;;;10.95;8.05;;;;;;;18.94;43.23;98717.19;5071780;28;20075;-77
2023/01/20 10:41:45;;;;;;;10.63;8.00;;;;;;;18.83;41.69;98715.41;5056707;28;20445;-77
2023/01/20 10:44:13;;;;;;;10.63;7.28;;;;;;;20.06;40.59;98699.84;5092152;28;20031;-77
2023/01/20 10:47:06;;;;;;;14.70;7.18;;;;;;;19.21;41.03;98717.13;5056315;28;20036;-76
2023/01/20 10:49:34;;;;;;;9.23;6.25;;;;;;;18.34;39.61;98719.00;5060862;28;20021;-72
2023/01/20 10:52:24;;;;;;;11.38;6.35;;;;;;;18.50;39.02;98708.22;5065099;28;20028;-72
2023/01/20 10:55:14;;;;;;;9.93;5.88;;;;;;;20.01;38.97;98703.41;5080808;28;20052;-72
2023/01/20 10:57:39;;;;;;;9.10;6.15;;;;;;;20.26;37.74;98699.94;5072499;28;20496;-72
2023/01/20 11:00:14;;;;;;;9.35;5.88;;;;;;;20.90;37.74;98712.50;5062619;28;20040;-73
2023/01/20 11:02:40;;;;;;;8.13;5.65;;;;;;;22.07;36.32;98695.03;5068365;28;20079;-74
2023/01/20 11:05:18;;;;;;;7.10;5.32;;;;;;;19.57;37.50;98709.19;5067830;28;20486;-72
2023/01/20 11:07:45;;;;;;;8.33;5.70;;;;;;;20.96;37.46;98707.84;5048670;28;20040;-74
2023/01/20 11:10:20;;;;;;;9.82;6.03;;;;;;;19.90;36.11;98712.69;5063055;28;20279;-74
2023/01/20 11:12:56;;;;;;;9.10;5.80;;;;;;;19.63;37.80;98718.28;5070602;28;20017;-74
2023/01/20 11:15:28;;;;;;;7.30;5.63;;;;;;;20.63;36.96;98701.72;5064806;28;20393;-74
2023/01/20 11:18:14;;;;;;;7.65;6.07;;;;;;;21.49;36.14;98713.09;5048674;28;20021;-75
2023/01/20 11:20:44;;;;;;;9.88;5.75;;;;;;;20.60;36.68;98715.22;5053850;28;20043;-75
2023/01/20 11:23:25;;;;;;;8.80;6.03;;;;;;;20.32;36.68;98709.03;5067631;28;20028;-75
2023/01/20 11:26:08;;;;;;;8.02;5.90;;;;;;;20.78;36.15;98712.75;5057269;28;20021;-76
2023/01/20 11:28:56;;;;;;;13.13;6.88;;;;;;;19.14;36.71;98712.97;5064283;28;20397;-76